createdAt,value
2018-06-19T00:00:19.129Z,77.06
2018-06-19T00:01:18.848Z,76.1
2018-06-19T00:02:18.836Z,76.48
2018-06-19T00:03:19.093Z,76.29
2018-06-19T00:04:19.016Z,76.57
2018-06-19T00:05:19.064Z,76.67
2018-06-19T00:06:19.063Z,76
2018-06-19T00:07:19.046Z,76.1
2018-06-19T00:08:19.029Z,77.06
2018-06-19T00:09:18.753Z,76.67
2018-06-19T00:10:19.003Z,76.77
2018-06-19T00:11:18.994Z,76.29
2018-06-19T00:12:18.982Z,76.1
2018-06-19T00:13:18.971Z,75.23
2018-06-19T00:14:18.953Z,74.76
2018-06-19T00:15:18.952Z,74.85
2018-06-19T00:16:18.665Z,73.51
2018-06-19T00:17:18.653Z,73.61
2018-06-19T00:18:18.642Z,72.84
2018-06-19T00:19:18.890Z,73.7
2018-06-19T00:20:18.884Z,73.22
2018-06-19T00:21:18.603Z,73.41
2018-06-19T00:22:18.857Z,73.22
2018-06-19T00:23:18.839Z,73.03
2018-06-19T00:24:18.590Z,73.03
2018-06-19T00:25:18.824Z,73.13
2018-06-19T00:26:18.543Z,73.51
2018-06-19T00:27:18.797Z,74.27
2018-06-19T00:28:18.777Z,74.37
2018-06-19T00:29:18.779Z,74.95
2018-06-19T00:30:18.493Z,75.62
2018-06-19T00:31:18.744Z,76.57
2018-06-19T00:32:18.730Z,76.48
2018-06-19T00:33:18.716Z,76.86
2018-06-19T00:34:18.713Z,77.53
2018-06-19T00:35:18.696Z,77.92
2018-06-19T00:36:18.681Z,78.78
2018-06-19T00:37:18.401Z,78.78
2018-06-19T00:38:18.389Z,79.64
2018-06-19T00:39:18.637Z,79.64
2018-06-19T00:40:18.629Z,80.32
2018-06-19T00:41:18.353Z,80.22
2018-06-19T00:42:18.347Z,80.79
2018-06-19T00:43:18.590Z,80.7
2018-06-19T00:44:18.314Z,80.79
2018-06-19T00:45:18.568Z,81.37
2018-06-19T00:46:18.288Z,81.08
2018-06-19T00:47:18.540Z,80.89
2018-06-19T00:48:18.525Z,81.27
2018-06-19T00:49:18.521Z,81.18
2018-06-19T00:50:18.505Z,81.37
2018-06-19T00:51:18.491Z,81.27
2018-06-19T00:52:18.485Z,80.6
2018-06-19T00:53:18.201Z,80.51
2018-06-19T00:54:18.450Z,80.7
2018-06-19T00:55:18.440Z,80.51
2018-06-19T00:56:18.161Z,80.7
2018-06-19T00:57:18.420Z,80.79
2018-06-19T00:58:18.402Z,80.41
2018-06-19T00:59:18.397Z,80.22
2018-06-19T01:00:18.375Z,80.32
2018-06-19T01:01:18.367Z,80.41
2018-06-19T01:02:18.353Z,80.41
2018-06-19T01:03:18.074Z,80.03
2018-06-19T01:04:18.330Z,80.41
2018-06-19T01:05:18.312Z,80.51
2018-06-19T01:06:18.034Z,80.03
2018-06-19T01:07:18.021Z,80.12
2018-06-19T01:08:18.275Z,80.51
2018-06-19T01:09:18.275Z,80.12
2018-06-19T01:10:18.246Z,80.03
2018-06-19T01:11:18.233Z,79.83
2018-06-19T01:12:18.227Z,80.32
2018-06-19T01:13:18.212Z,80.41
2018-06-19T01:14:18.202Z,80.41
2018-06-19T01:15:17.923Z,80.51
2018-06-19T01:16:18.173Z,80.41
2018-06-19T01:17:18.164Z,80.79
2018-06-19T01:18:18.151Z,80.7
2018-06-19T01:19:17.873Z,80.79
2018-06-19T01:20:17.861Z,81.37
2018-06-19T01:21:17.844Z,81.27
2018-06-19T01:22:17.830Z,81.66
2018-06-19T01:23:17.823Z,81.56
2018-06-19T01:24:17.809Z,81.27
2018-06-19T01:25:18.060Z,81.18
2018-06-19T01:26:18.050Z,81.46
2018-06-19T01:27:17.768Z,81.85
2018-06-19T01:28:18.019Z,81.75
2018-06-19T01:29:18.020Z,81.66
2018-06-19T01:30:17.732Z,82.14
2018-06-19T01:31:17.986Z,82.9
2018-06-19T01:32:17.707Z,82.71
2018-06-19T01:33:17.695Z,82.71
2018-06-19T01:34:17.943Z,82.81
2018-06-19T01:35:17.933Z,83.29
2018-06-19T01:36:17.655Z,82.85
2018-06-19T01:37:17.649Z,83.19
2018-06-19T01:38:17.999Z,83.29
2018-06-19T01:39:17.890Z,83.76
2018-06-19T01:40:17.606Z,83.95
2018-06-19T01:41:17.854Z,84.05
2018-06-19T01:42:17.584Z,84.67
2018-06-19T01:43:17.827Z,84.25
2018-06-19T01:44:17.818Z,84.77
2018-06-19T01:45:17.806Z,83.91
2018-06-19T01:46:17.530Z,84.09
2018-06-19T01:47:17.780Z,83.91
2018-06-19T01:48:17.773Z,84.09
2018-06-19T01:49:17.760Z,84.15
2018-06-19T01:50:17.747Z,84.28
2018-06-19T01:51:17.731Z,84.77
2018-06-19T01:52:17.452Z,83.71
2018-06-19T01:53:17.448Z,84
2018-06-19T01:54:17.701Z,84
2018-06-19T01:55:17.679Z,83.81
2018-06-19T01:56:17.407Z,83.81
2018-06-19T01:57:17.659Z,84.28
2018-06-19T01:58:17.378Z,83.91
2018-06-19T01:59:17.631Z,83.81
2018-06-19T02:00:17.619Z,84
2018-06-19T02:01:17.610Z,84
2018-06-19T02:02:17.591Z,83.91
2018-06-19T02:03:17.318Z,83.52
2018-06-19T02:04:17.580Z,83.91
2018-06-19T02:05:17.557Z,83.81
2018-06-19T02:06:17.542Z,84.58
2018-06-19T02:07:17.539Z,84
2018-06-19T02:08:17.520Z,83.81
2018-06-19T02:09:17.504Z,83.91
2018-06-19T02:10:17.233Z,83.91
2018-06-19T02:11:17.482Z,84.19
2018-06-19T02:12:17.205Z,83.61
2018-06-19T02:13:17.457Z,83.52
2018-06-19T02:14:17.443Z,83.14
2018-06-19T02:15:17.432Z,83.52
2018-06-19T02:16:17.415Z,83.61
2018-06-19T02:17:17.186Z,83.81
2018-06-19T02:18:17.389Z,83.61
2018-06-19T02:19:17.377Z,82.94
2018-06-19T02:20:17.101Z,83.81
2018-06-19T02:21:17.353Z,84.38
2018-06-19T02:22:17.339Z,83.71
2018-06-19T02:23:17.344Z,84.09
2018-06-19T02:24:17.053Z,83.91
2018-06-19T02:25:17.300Z,84.09
2018-06-19T02:26:17.295Z,83.52
2018-06-19T02:27:17.279Z,83.52
2018-06-19T02:28:17.263Z,84.09
2018-06-19T02:29:16.988Z,84
2018-06-19T02:30:16.978Z,84
2018-06-19T02:31:17.232Z,84
2018-06-19T02:32:17.220Z,83.42
2018-06-19T02:33:16.940Z,84.28
2018-06-19T02:34:16.959Z,83.91
2018-06-19T02:35:16.913Z,83.42
2018-06-19T02:36:17.163Z,82.75
2018-06-19T02:37:17.156Z,84.09
2018-06-19T02:38:17.146Z,84.09
2018-06-19T02:39:17.131Z,84.38
2018-06-19T02:40:17.139Z,84.38
2018-06-19T02:41:17.109Z,83.81
2018-06-19T02:42:17.098Z,84
2018-06-19T02:43:17.092Z,84.67
2018-06-19T02:44:17.075Z,84.77
2018-06-19T02:45:17.064Z,84
2018-06-19T02:46:17.045Z,84.67
2018-06-19T02:47:17.033Z,83.91
2018-06-19T02:48:16.759Z,84.38
2018-06-19T02:49:17.006Z,84.58
2018-06-19T02:50:16.993Z,84.67
2018-06-19T02:51:16.717Z,84.09
2018-06-19T02:52:16.963Z,84.19
2018-06-19T02:53:16.685Z,84.48
2018-06-19T02:54:16.955Z,84.19
2018-06-19T02:55:16.667Z,83.91
2018-06-19T02:56:16.916Z,84.19
2018-06-19T02:57:16.902Z,84.77
2018-06-19T02:58:16.888Z,84
2018-06-19T02:59:16.897Z,84.09
2018-06-19T03:00:16.625Z,84
2018-06-19T03:01:16.853Z,83.91
2018-06-19T03:02:16.574Z,84.19
2018-06-19T03:03:16.566Z,84
2018-06-19T03:04:16.819Z,84
2018-06-19T03:05:16.542Z,83.42
2018-06-19T03:06:16.808Z,83.71
2018-06-19T03:07:16.837Z,83.81
2018-06-19T03:08:16.502Z,83.91
2018-06-19T03:09:16.490Z,83.81
2018-06-19T03:10:16.742Z,83.81
2018-06-19T03:11:16.731Z,84
2018-06-19T03:12:16.450Z,83.81
2018-06-19T03:13:16.901Z,83.52
2018-06-19T03:14:16.693Z,83.42
2018-06-19T03:15:16.415Z,83.61
2018-06-19T03:16:16.407Z,84
2018-06-19T03:17:16.649Z,83.91
2018-06-19T03:18:16.378Z,84.19
2018-06-19T03:19:16.624Z,84.86
2018-06-19T03:20:16.629Z,84.19
2018-06-19T03:21:16.600Z,84.38
2018-06-19T03:22:16.589Z,84
2018-06-19T03:23:16.313Z,84
2018-06-19T03:24:16.297Z,84.38
2018-06-19T03:25:16.545Z,84.38
2018-06-19T03:26:16.538Z,84.28
2018-06-19T03:27:16.256Z,84.58
2018-06-19T03:28:16.520Z,84.95
2018-06-19T03:29:16.497Z,84.19
2018-06-19T03:30:16.648Z,84.38
2018-06-19T03:31:16.475Z,84.48
2018-06-19T03:32:16.458Z,84.67
2018-06-19T03:33:16.447Z,84.48
2018-06-19T03:34:16.181Z,84.19
2018-06-19T03:35:16.163Z,84.38
2018-06-19T03:36:16.148Z,84
2018-06-19T03:37:16.132Z,84.28
2018-06-19T03:38:16.388Z,84.38
2018-06-19T03:39:16.370Z,84
2018-06-19T03:40:16.095Z,84.38
2018-06-19T03:41:16.344Z,84.58
2018-06-19T03:42:16.069Z,84.19
2018-06-19T03:43:16.320Z,84.58
2018-06-19T03:44:16.050Z,84.28
2018-06-19T03:45:16.298Z,83.61
2018-06-19T03:46:16.028Z,84
2018-06-19T03:47:16.269Z,83.71
2018-06-19T03:48:16.257Z,84.58
2018-06-19T03:49:16.245Z,84.58
2018-06-19T03:50:16.237Z,84.86
2018-06-19T03:51:15.959Z,83.91
2018-06-19T03:52:16.213Z,83.81
2018-06-19T03:53:15.932Z,84.58
2018-06-19T03:54:16.184Z,83.91
2018-06-19T03:55:16.177Z,84.67
2018-06-19T03:56:15.896Z,84.28
2018-06-19T03:57:15.880Z,83.91
2018-06-19T03:58:16.136Z,84.09
2018-06-19T03:59:16.122Z,83.81
2018-06-19T04:00:15.842Z,84.95
2018-06-19T04:01:15.872Z,84
2018-06-19T04:02:15.818Z,83.91
2018-06-19T04:03:16.070Z,84
2018-06-19T04:04:16.062Z,84.19
2018-06-19T04:05:16.076Z,84.19
2018-06-19T04:06:16.031Z,83.81
2018-06-19T04:07:16.017Z,84.42
2018-06-19T04:08:16.008Z,84.86
2018-06-19T04:09:16.008Z,84.48
2018-06-19T04:10:15.720Z,84.09
2018-06-19T04:11:15.975Z,84.19
2018-06-19T04:12:15.960Z,84.19
2018-06-19T04:13:15.949Z,84.81
2018-06-19T04:14:15.668Z,84.28
2018-06-19T04:15:15.922Z,84.52
2018-06-19T04:16:15.643Z,84.14
2018-06-19T04:17:16.025Z,84.52
2018-06-19T04:18:15.891Z,84.19
2018-06-19T04:19:15.605Z,84.28
2018-06-19T04:20:15.859Z,84.38
2018-06-19T04:21:15.842Z,84.58
2018-06-19T04:22:15.840Z,84.23
2018-06-19T04:23:15.817Z,84.23
2018-06-19T04:24:15.818Z,84.19
2018-06-19T04:25:15.798Z,84.77
2018-06-19T04:26:15.518Z,84.58
2018-06-19T04:27:15.508Z,84.38
2018-06-19T04:28:15.498Z,83.81
2018-06-19T04:29:15.480Z,84.48
2018-06-19T04:30:15.471Z,84.14
2018-06-19T04:31:15.780Z,83.85
2018-06-19T04:32:15.709Z,84
2018-06-19T04:33:15.741Z,83.81
2018-06-19T04:34:15.689Z,84.04
2018-06-19T04:35:15.680Z,84.95
2018-06-19T04:36:15.656Z,83.85
2018-06-19T04:37:15.381Z,84.04
2018-06-19T04:38:15.369Z,84.14
2018-06-19T04:39:15.354Z,84.04
2018-06-19T04:40:15.341Z,84.04
2018-06-19T04:41:15.605Z,83.75
2018-06-19T04:42:15.317Z,84.14
2018-06-19T04:43:15.356Z,83.65
2018-06-19T04:44:15.558Z,84.04
2018-06-19T04:45:15.545Z,84.42
2018-06-19T04:46:15.265Z,84.04
2018-06-19T04:47:15.527Z,83.94
2018-06-19T04:48:15.507Z,84.61
2018-06-19T04:49:15.502Z,84.42
2018-06-19T04:50:15.482Z,83.85
2018-06-19T04:51:15.470Z,84.04
2018-06-19T04:52:15.455Z,84.04
2018-06-19T04:53:15.183Z,83.94
2018-06-19T04:54:15.431Z,83.85
2018-06-19T04:55:15.428Z,83.47
2018-06-19T04:56:15.407Z,83.08
2018-06-19T04:57:15.396Z,83.56
2018-06-19T04:58:15.386Z,83.65
2018-06-19T04:59:15.369Z,83.08
2018-06-19T05:00:15.355Z,83.42
2018-06-19T05:01:15.345Z,82.6
2018-06-19T05:02:15.073Z,83.37
2018-06-19T05:03:15.319Z,83.56
2018-06-19T05:04:15.047Z,82.98
2018-06-19T05:05:15.296Z,83.75
2018-06-19T05:06:15.022Z,83.37
2018-06-19T05:07:15.276Z,83.42
2018-06-19T05:08:15.259Z,82.7
2018-06-19T05:09:15.258Z,82.79
2018-06-19T05:10:15.236Z,82.79
2018-06-19T05:11:15.222Z,83.18
2018-06-19T05:12:14.944Z,83.47
2018-06-19T05:13:15.402Z,82.98
2018-06-19T05:14:15.251Z,82.65
2018-06-19T05:15:14.915Z,82.08
2018-06-19T05:16:15.176Z,82.46
2018-06-19T05:17:15.180Z,82.18
2018-06-19T05:18:15.149Z,82.12
2018-06-19T05:19:15.137Z,82.27
2018-06-19T05:20:15.209Z,81.84
2018-06-19T05:21:14.837Z,82.37
2018-06-19T05:22:14.824Z,81.74
2018-06-19T05:23:15.070Z,81.84
2018-06-19T05:24:14.801Z,81.54
2018-06-19T05:25:14.782Z,81.16
2018-06-19T05:26:15.033Z,82.21
2018-06-19T05:27:15.023Z,81.54
2018-06-19T05:28:14.745Z,81.22
2018-06-19T05:29:15.003Z,81.41
2018-06-19T05:30:14.991Z,80.93
2018-06-19T05:31:14.711Z,81.45
2018-06-19T05:32:14.966Z,81.22
2018-06-19T05:33:14.684Z,81.31
2018-06-19T05:34:14.672Z,81.51
2018-06-19T05:35:14.936Z,81.31
2018-06-19T05:36:14.919Z,81.31
2018-06-19T05:37:14.904Z,80.93
2018-06-19T05:38:14.623Z,80.26
2018-06-19T05:39:14.886Z,80.83
2018-06-19T05:40:14.861Z,80.3
2018-06-19T05:41:14.585Z,80.68
2018-06-19T05:42:14.847Z,79.82
2018-06-19T05:43:14.563Z,80.55
2018-06-19T05:44:14.813Z,80.26
2018-06-19T05:45:14.804Z,81.35
2018-06-19T05:46:14.599Z,79.72
2018-06-19T05:47:14.795Z,80.97
2018-06-19T05:48:14.501Z,80.97
2018-06-19T05:49:14.488Z,80.58
2018-06-19T05:50:14.475Z,79.53
2018-06-19T05:51:14.726Z,80.11
2018-06-19T05:52:14.763Z,79.05
2018-06-19T05:53:14.704Z,80.49
2018-06-19T05:54:14.702Z,79.91
2018-06-19T05:55:14.685Z,80.11
2018-06-19T05:56:14.403Z,80.01
2018-06-19T05:57:14.656Z,80.01
2018-06-19T05:58:14.644Z,80.49
2018-06-19T05:59:14.368Z,80.49
2018-06-19T06:00:14.418Z,80.97
2018-06-19T06:01:14.341Z,80.68
2018-06-19T06:02:14.330Z,80.49
2018-06-19T06:03:14.583Z,80.3
2018-06-19T06:04:14.309Z,80.4
2018-06-19T06:05:14.561Z,80.4
2018-06-19T06:06:14.547Z,81.16
2018-06-19T06:07:14.537Z,80.78
2018-06-19T06:08:14.257Z,80.49
2018-06-19T06:09:14.513Z,80.11
2018-06-19T06:10:14.234Z,79.44
2018-06-19T06:11:14.588Z,79.14
2018-06-19T06:12:14.479Z,78.86
2018-06-19T06:13:14.464Z,79.44
2018-06-19T06:14:14.457Z,79.14
2018-06-19T06:15:14.174Z,78.57
2018-06-19T06:16:14.160Z,78.67
2018-06-19T06:17:14.149Z,78.28
2018-06-19T06:18:14.401Z,77.33
2018-06-19T06:19:14.390Z,76.65
2018-06-19T06:20:14.378Z,75.7
2018-06-19T06:21:14.362Z,74.54
2018-06-19T06:22:14.086Z,74.06
2018-06-19T06:23:14.343Z,73.3
2018-06-19T06:24:14.061Z,72.91
2018-06-19T06:25:14.053Z,71.72
2018-06-19T06:26:14.307Z,71.44
2018-06-19T06:27:14.292Z,69.23
2018-06-19T06:28:14.288Z,69.13
2018-06-19T06:29:14.269Z,68.08
2018-06-19T06:30:14.257Z,67.41
2018-06-19T06:31:14.267Z,66.64
2018-06-19T06:32:13.969Z,63.96
2018-06-19T06:33:14.223Z,65.39
2018-06-19T06:34:14.208Z,65.2
2018-06-19T06:35:14.197Z,63.48
2018-06-19T06:36:14.184Z,63.57
2018-06-19T06:37:13.906Z,63.09
2018-06-19T06:38:14.157Z,63.29
2018-06-19T06:39:14.144Z,62.42
2018-06-19T06:40:14.135Z,61.75
2018-06-19T06:41:14.121Z,60.99
2018-06-19T06:42:13.847Z,59.93
2018-06-19T06:43:14.096Z,60.41
2018-06-19T06:44:14.082Z,60.63
2018-06-19T06:45:13.807Z,59.58
2018-06-19T06:46:14.058Z,58.71
2018-06-19T06:47:14.050Z,59.86
2018-06-19T06:48:14.036Z,60.72
2018-06-19T06:49:14.033Z,60.92
2018-06-19T06:50:13.817Z,61.11
2018-06-19T06:51:14.002Z,62.26
2018-06-19T06:52:13.728Z,63.42
2018-06-19T06:53:13.715Z,63.7
2018-06-19T06:54:13.965Z,62.65
2018-06-19T06:55:13.947Z,62.74
2018-06-19T06:56:13.677Z,63.99
2018-06-19T06:57:13.925Z,64.76
2018-06-19T06:58:13.655Z,65.23
2018-06-19T06:59:13.905Z,64.98
2018-06-19T07:00:13.896Z,66.03
2018-06-19T07:01:14.022Z,67.38
2018-06-19T07:02:13.604Z,66.61
2018-06-19T07:03:13.855Z,70.36
2018-06-19T07:04:13.576Z,71.22
2018-06-19T07:05:13.569Z,70.93
2018-06-19T07:06:13.816Z,71.22
2018-06-19T07:07:13.546Z,72.18
2018-06-19T07:08:13.798Z,71.8
2018-06-19T07:09:13.794Z,72.18
2018-06-19T07:10:13.565Z,72.75
2018-06-19T07:11:13.768Z,72.95
2018-06-19T07:12:13.764Z,71.89
2018-06-19T07:13:13.941Z,71.61
2018-06-19T07:14:13.464Z,73.18
2018-06-19T07:15:13.725Z,73.18
2018-06-19T07:16:13.442Z,74.71
2018-06-19T07:17:13.434Z,73.66
2018-06-19T07:18:13.688Z,73.85
2018-06-19T07:19:14.025Z,74.71
2018-06-19T07:20:13.668Z,74.62
2018-06-19T07:21:13.656Z,75
2018-06-19T07:22:13.647Z,76.06
2018-06-19T07:23:13.363Z,75.29
2018-06-19T07:24:13.620Z,75.38
2018-06-19T07:25:13.348Z,75.48
2018-06-19T07:26:13.692Z,74.71
2018-06-19T07:27:13.586Z,76.54
2018-06-19T07:28:13.630Z,75.57
2018-06-19T07:29:13.558Z,75.57
2018-06-19T07:30:13.554Z,75.48
2018-06-19T07:31:13.537Z,75.77
2018-06-19T07:32:13.269Z,75.57
2018-06-19T07:33:13.252Z,74.71
2018-06-19T07:34:13.508Z,75.67
2018-06-19T07:35:13.494Z,75.77
2018-06-19T07:36:13.222Z,75.96
2018-06-19T07:37:13.477Z,76.82
2018-06-19T07:38:13.637Z,77.88
2018-06-19T07:39:13.451Z,77.11
2018-06-19T07:40:13.443Z,76.44
2018-06-19T07:41:13.429Z,76.64
2018-06-19T07:42:13.153Z,75.77
2018-06-19T07:43:13.142Z,75.87
2018-06-19T07:44:13.135Z,75.38
2018-06-19T07:45:13.379Z,75.87
2018-06-19T07:46:13.372Z,75.38
2018-06-19T07:47:13.097Z,75.2
2018-06-19T07:48:13.085Z,75.2
2018-06-19T07:49:13.075Z,75.38
2018-06-19T07:50:13.327Z,74.71
2018-06-19T07:51:13.047Z,74.23
2018-06-19T07:52:13.306Z,74.13
2018-06-19T07:53:13.291Z,74.9
2018-06-19T07:54:13.278Z,74.62
2018-06-19T07:55:13.011Z,74.43
2018-06-19T07:56:13.259Z,75.1
2018-06-19T07:57:13.298Z,74.9
2018-06-19T07:58:13.243Z,74.71
2018-06-19T07:59:12.959Z,74.23
2018-06-19T08:00:13.221Z,74.23
2018-06-19T08:01:13.204Z,74.13
2018-06-19T08:02:13.192Z,73.75
2018-06-19T08:03:13.181Z,74.04
2018-06-19T08:04:13.170Z,72.79
2018-06-19T08:05:13.159Z,73.27
2018-06-19T08:06:13.147Z,72.99
2018-06-19T08:07:13.143Z,72.99
2018-06-19T08:08:13.126Z,73.66
2018-06-19T08:09:13.111Z,73.46
2018-06-19T08:10:13.100Z,73.56
2018-06-19T08:11:12.825Z,72.5
2018-06-19T08:12:13.080Z,73.08
2018-06-19T08:13:13.067Z,72.22
2018-06-19T08:14:13.060Z,72.6
2018-06-19T08:15:12.779Z,71.73
2018-06-19T08:16:12.767Z,71.35
2018-06-19T08:17:12.753Z,71.16
2018-06-19T08:18:13.011Z,70.68
2018-06-19T08:19:13.000Z,70.1
2018-06-19T08:20:12.994Z,70.87
2018-06-19T08:21:12.711Z,70.01
2018-06-19T08:22:12.699Z,69.72
2018-06-19T08:23:12.959Z,68.95
2018-06-19T08:24:12.950Z,68.57
2018-06-19T08:25:12.933Z,68.37
2018-06-19T08:26:12.654Z,67.9
2018-06-19T08:27:12.643Z,67.03
2018-06-19T08:28:12.897Z,66.93
2018-06-19T08:29:12.624Z,65.88
2018-06-19T08:30:12.877Z,65.69
2018-06-19T08:31:12.600Z,65.59
2018-06-19T08:32:12.585Z,65.11
2018-06-19T08:33:12.577Z,62.71
2018-06-19T08:34:12.564Z,63.76
2018-06-19T08:35:12.824Z,63.86
2018-06-19T08:36:12.925Z,64.02
2018-06-19T08:37:12.532Z,63.45
2018-06-19T08:38:12.518Z,63.83
2018-06-19T08:39:12.787Z,63.64
2018-06-19T08:40:12.504Z,63.35
2018-06-19T08:41:12.750Z,63.73
2018-06-19T08:42:12.737Z,63.16
2018-06-19T08:43:12.725Z,63.73
2018-06-19T08:44:12.449Z,63.25
2018-06-19T08:45:12.701Z,63.67
2018-06-19T08:46:12.699Z,63.67
2018-06-19T08:47:12.683Z,64.72
2018-06-19T08:48:12.411Z,63.67
2018-06-19T08:49:12.657Z,63.86
2018-06-19T08:50:12.652Z,65.3
2018-06-19T08:51:12.436Z,64.92
2018-06-19T08:52:12.625Z,64.63
2018-06-19T08:53:12.620Z,65.69
2018-06-19T08:54:12.612Z,67.13
2018-06-19T08:55:12.343Z,67.13
2018-06-19T08:56:12.582Z,67.32
2018-06-19T08:57:12.572Z,67.13
2018-06-19T08:58:12.290Z,67.51
2018-06-19T08:59:12.279Z,68.28
2018-06-19T09:00:12.550Z,67.8
2018-06-19T09:01:12.259Z,67.03
2018-06-19T09:02:12.522Z,65.72
2018-06-19T09:03:12.502Z,66.58
2018-06-19T09:04:12.225Z,66.55
2018-06-19T09:05:12.482Z,67.07
2018-06-19T09:06:12.201Z,67.41
2018-06-19T09:07:12.465Z,67.41
2018-06-19T09:08:12.450Z,66.64
2018-06-19T09:09:12.430Z,67.61
2018-06-19T09:10:12.156Z,67.13
2018-06-19T09:11:12.424Z,67.07
2018-06-19T09:12:12.137Z,66.58
2018-06-19T09:13:12.805Z,67.25
2018-06-19T09:14:12.117Z,67.22
2018-06-19T09:15:12.363Z,67.25
2018-06-19T09:16:12.147Z,66.93
2018-06-19T09:17:12.091Z,66.64
2018-06-19T09:18:12.071Z,66.87
2018-06-19T09:19:12.322Z,66.97
2018-06-19T09:20:12.405Z,65.62
2018-06-19T09:21:12.310Z,66.2
2018-06-19T09:22:12.289Z,65.91
2018-06-19T09:23:12.015Z,65.72
2018-06-19T09:24:12.291Z,66.87
2018-06-19T09:25:12.282Z,66.58
2018-06-19T09:26:12.251Z,65.81
2018-06-19T09:27:11.970Z,65.23
2018-06-19T09:28:12.233Z,65.72
2018-06-19T09:29:11.946Z,64.95
2018-06-19T09:30:11.935Z,66.68
2018-06-19T09:31:11.966Z,66.58
2018-06-19T09:32:11.917Z,65.91
2018-06-19T09:33:11.904Z,65.91
2018-06-19T09:34:12.177Z,66.1
2018-06-19T09:35:12.153Z,66.97
2018-06-19T09:36:11.871Z,67.35
2018-06-19T09:37:12.122Z,67.35
2018-06-19T09:38:12.112Z,67.35
2018-06-19T09:39:12.102Z,66.49
2018-06-19T09:40:12.091Z,66.49
2018-06-19T09:41:11.812Z,67.16
2018-06-19T09:42:12.067Z,67.07
2018-06-19T09:43:11.792Z,66.81
2018-06-19T09:44:11.782Z,68.06
2018-06-19T09:45:11.771Z,66.3
2018-06-19T09:46:12.039Z,66.91
2018-06-19T09:47:12.016Z,66.71
2018-06-19T09:48:12.018Z,66.91
2018-06-19T09:49:11.991Z,64.98
2018-06-19T09:50:11.983Z,67.86
2018-06-19T09:51:11.972Z,67.96
2018-06-19T09:52:11.702Z,67.96
2018-06-19T09:53:11.955Z,67.68
2018-06-19T09:54:11.677Z,66.42
2018-06-19T09:55:11.665Z,67.42
2018-06-19T09:56:11.655Z,68.29
2018-06-19T09:57:11.909Z,71.17
2018-06-19T09:58:11.642Z,72.03
2018-06-19T09:59:12.124Z,72.13
2018-06-19T10:00:11.877Z,71.17
2018-06-19T10:01:11.877Z,71.46
2018-06-19T10:02:11.599Z,71.75
2018-06-19T10:03:11.583Z,71.94
2018-06-19T10:04:11.841Z,72.23
2018-06-19T10:05:11.829Z,72.03
2018-06-19T10:06:11.888Z,69.82
2018-06-19T10:07:11.549Z,69.44
2018-06-19T10:08:11.801Z,70.78
2018-06-19T10:09:11.531Z,70.98
2018-06-19T10:10:11.782Z,70.98
2018-06-19T10:11:11.842Z,70.11
2018-06-19T10:12:12.048Z,69.82
2018-06-19T10:13:11.484Z,70.59
2018-06-19T10:14:11.735Z,71.01
2018-06-19T10:15:11.732Z,70.78
2018-06-19T10:16:11.459Z,71.65
2018-06-19T10:17:11.445Z,71.65
2018-06-19T10:18:11.696Z,70.88
2018-06-19T10:19:11.699Z,70.88
2018-06-19T10:20:11.416Z,71.55
2018-06-19T10:21:11.669Z,71.55
2018-06-19T10:22:11.660Z,71.26
2018-06-19T10:23:11.655Z,70.68
2018-06-19T10:24:11.384Z,70.98
2018-06-19T10:25:11.627Z,71.46
2018-06-19T10:26:11.662Z,70.21
2018-06-19T10:27:11.609Z,69.92
2018-06-19T10:28:11.605Z,71.65
2018-06-19T10:29:11.591Z,73.09
2018-06-19T10:30:11.315Z,71.75
2018-06-19T10:31:11.300Z,71.94
2018-06-19T10:32:11.295Z,71.49
2018-06-19T10:33:11.550Z,71.49
2018-06-19T10:34:11.537Z,71.2
2018-06-19T10:35:11.266Z,71.88
2018-06-19T10:36:11.518Z,73.03
2018-06-19T10:37:11.522Z,74.29
2018-06-19T10:38:11.503Z,74.41
2018-06-19T10:39:11.493Z,75.86
2018-06-19T10:40:11.233Z,75.96
2018-06-19T10:41:11.206Z,75.38
2018-06-19T10:42:11.457Z,77.69
2018-06-19T10:43:11.456Z,77.73
2018-06-19T10:44:11.179Z,77.92
2018-06-19T10:45:11.178Z,79.75
2018-06-19T10:46:11.163Z,80.94
2018-06-19T10:47:11.155Z,80.27
2018-06-19T10:48:11.144Z,81.91
2018-06-19T10:49:11.131Z,83.74
2018-06-19T10:50:11.390Z,85.13
2018-06-19T10:51:11.115Z,87.26
2018-06-19T10:52:11.371Z,83.59
2018-06-19T10:53:11.100Z,84.84
2018-06-19T10:54:11.357Z,85.03
2018-06-19T10:55:11.087Z,86.77
2018-06-19T10:56:11.342Z,87.3
2018-06-19T10:57:11.341Z,90.09
2018-06-19T10:58:11.327Z,89.65
2018-06-19T10:59:11.316Z,91.88
2018-06-19T11:00:11.317Z,89.71
2018-06-19T11:01:11.049Z,90.67
2018-06-19T11:02:11.305Z,89.81
2018-06-19T11:03:11.288Z,90.87
2018-06-19T11:04:11.018Z,88.12
2018-06-19T11:05:11.502Z,87.83
2018-06-19T11:06:11.266Z,86.19
2018-06-19T11:07:11.006Z,88.12
2018-06-19T11:08:11.333Z,86.63
2018-06-19T11:09:11.247Z,86.82
2018-06-19T11:10:11.237Z,84.61
2018-06-19T11:11:11.231Z,84.76
2018-06-19T11:12:10.961Z,83.55
2018-06-19T11:13:10.954Z,84.8
2018-06-19T11:14:10.983Z,83.84
2018-06-19T11:15:11.195Z,83.26
2018-06-19T11:16:11.194Z,83.16
2018-06-19T11:17:10.920Z,82.49
2018-06-19T11:18:10.915Z,84.03
2018-06-19T11:19:11.164Z,84.32
2018-06-19T11:20:11.422Z,84.61
2018-06-19T11:21:11.156Z,85.19
2018-06-19T11:22:11.144Z,82.59
2018-06-19T11:23:10.873Z,83.26
2018-06-19T11:24:11.127Z,84.03
2018-06-19T11:25:10.855Z,82.97
2018-06-19T11:26:10.843Z,82.97
2018-06-19T11:27:11.113Z,82.59
2018-06-19T11:28:10.833Z,83.26
2018-06-19T11:29:11.166Z,82.1
2018-06-19T11:30:11.074Z,83.55
2018-06-19T11:31:11.061Z,84.12
2018-06-19T11:32:11.059Z,83.64
2018-06-19T11:33:11.058Z,84.32
2018-06-19T11:34:11.038Z,83.64
2018-06-19T11:35:11.033Z,83.74
2018-06-19T11:36:10.757Z,83.16
2018-06-19T11:37:11.015Z,83.84
2018-06-19T11:38:11.007Z,84.42
2018-06-19T11:39:10.739Z,85.13
2018-06-19T11:40:10.993Z,85.47
2018-06-19T11:41:10.990Z,85.38
2018-06-19T11:42:10.975Z,84.8
2018-06-19T11:43:10.961Z,84.65
2018-06-19T11:44:10.959Z,86.19
2018-06-19T11:45:10.952Z,85.33
2018-06-19T11:46:10.945Z,86.29
2018-06-19T11:47:10.933Z,86.29
2018-06-19T11:48:10.659Z,87.26
2018-06-19T11:49:11.041Z,86.68
2018-06-19T11:50:10.904Z,86
2018-06-19T11:51:10.640Z,86.48
2018-06-19T11:52:10.891Z,87.16
2018-06-19T11:53:10.880Z,86.58
2018-06-19T11:54:10.610Z,85.13
2018-06-19T11:55:10.864Z,86
2018-06-19T11:56:10.595Z,87.26
2018-06-19T11:57:10.900Z,86.87
2018-06-19T11:58:10.838Z,87.68
2018-06-19T11:59:10.835Z,89.71
2018-06-19T12:00:10.563Z,88.55
2018-06-19T12:01:10.926Z,88.31
2018-06-19T12:02:10.808Z,89.65
2018-06-19T12:03:10.799Z,95.98
2018-06-19T12:04:10.527Z,96.12
2018-06-19T12:05:10.784Z,96.31
2018-06-19T12:06:10.785Z,98.15
2018-06-19T12:07:10.507Z,97.14
2018-06-19T12:08:10.785Z,96.75
2018-06-19T12:09:10.500Z,95.98
2018-06-19T12:10:10.500Z,95.4
2018-06-19T12:11:10.482Z,94.72
2018-06-19T12:12:10.740Z,95.16
2018-06-19T12:13:10.917Z,94.34
2018-06-19T12:14:10.724Z,96.7
2018-06-19T12:15:10.722Z,95.88
2018-06-19T12:16:10.447Z,95.5
2018-06-19T12:17:10.755Z,95.5
2018-06-19T12:18:10.705Z,95.88
2018-06-19T12:19:10.428Z,96.66
2018-06-19T12:20:10.696Z,96.46
2018-06-19T12:21:10.687Z,96.84
2018-06-19T12:22:10.672Z,95.11
2018-06-19T12:23:10.664Z,95.78
2018-06-19T12:24:10.470Z,97.72
2018-06-19T12:25:10.391Z,96.46
2018-06-19T12:26:10.645Z,96.75
2018-06-19T12:27:10.642Z,94.34
2018-06-19T12:28:10.633Z,93.95
2018-06-19T12:29:10.622Z,93.66
2018-06-19T12:30:10.365Z,97.52
2018-06-19T12:31:10.614Z,96.26
2018-06-19T12:32:10.609Z,95.98
2018-06-19T12:33:10.595Z,98.54
2018-06-19T12:34:10.591Z,96.12
2018-06-19T12:35:10.326Z,95.74
2018-06-19T12:36:10.576Z,96.12
2018-06-19T12:37:10.570Z,96.7
2018-06-19T12:38:10.567Z,95.93
2018-06-19T12:39:10.295Z,96.12
2018-06-19T12:40:10.548Z,95.06
2018-06-19T12:41:10.276Z,95.25
2018-06-19T12:42:10.533Z,95.16
2018-06-19T12:43:10.536Z,94.68
2018-06-19T12:44:10.522Z,95.16
2018-06-19T12:45:10.513Z,95.74
2018-06-19T12:46:10.262Z,97.28
2018-06-19T12:47:10.237Z,97.77
2018-06-19T12:48:10.490Z,98.34
2018-06-19T12:49:10.219Z,96.89
2018-06-19T12:50:10.476Z,98.97
2018-06-19T12:51:10.209Z,99.99
2018-06-19T12:52:10.463Z,99.99
2018-06-19T12:53:10.473Z,99.99
2018-06-19T12:54:10.187Z,99.99
2018-06-19T12:55:10.461Z,99.99
2018-06-19T12:56:10.441Z,99.99